CheckWX is a tool to help pilots better visualize weather data.  It is not intended as a substitute for an official pre-flight weather briefing.

12:51:26 UTC

CYQX TAF
Gander International Airport
Gander, Canada
TAF CYQX 261141Z 2612/2712 26010KT P6SM FEW040 SCT200 FM261700 24012G22KT P6SM BKN040 TEMPO 2617/2702 5SM -SHSN FM270200 27010KT P6SM SCT040 FM270800 27008KT P6SM FEW040 RMK NXT FCST BY 261800Z

Mar-26@
12:00 UTC

Mar-26 @ 12:00 UTC

Mar-26@
17:00 UTC

Mar-26 @ 17:00 UTC

TAF CYQX 261141Z 2612/2712 26010KT P6SM FEW040 SCT200
Wind
  • 260° at 10 KTS
Cloud Levels
  • Few at 4,000' AGL
  • Scattered at 20,000' AGL

Mar-26@
17:00 UTC

Mar-26 @ 17:00 UTC

Mar-27@
02:00 UTC

Mar-27 @ 02:00 UTC

TEMPO 2617/2702 5SM -SHSN

Temporary

Temporary Changes expected for less than half the time period

Conditions
Light Snow

Mar-26@
17:00 UTC

Mar-26 @ 17:00 UTC

Mar-27@
02:00 UTC

Mar-27 @ 02:00 UTC

FM261700 24012G22KT P6SM BKN040

From

From Standard forecast or significant change

Wind
  • 240° at 12 KTS
  • {Gusting to 22 KTS
Cloud Levels
  • Broken at 4,000' AGL

Mar-27@
02:00 UTC

Mar-27 @ 02:00 UTC

Mar-27@
08:00 UTC

Mar-27 @ 08:00 UTC

FM270200 27010KT P6SM SCT040

From

From Standard forecast or significant change

Wind
  • 270° at 10 KTS
Cloud Levels
  • Scattered at 4,000' AGL

Mar-27@
08:00 UTC

Mar-27 @ 08:00 UTC

Mar-27@
12:00 UTC

Mar-27 @ 12:00 UTC

FM270800 27008KT P6SM FEW040 RMK NXT FCST BY 261800Z

From

From Standard forecast or significant change

Wind
  • 270° at 8 KTS
Cloud Levels
  • Few at 4,000' AGL